Time;durP1;ratioP1;P1;durP2;ratioP2;P2;SDS_P1;SDS_P2;PMS_P1;PMS_P2;Temp;Humidity;BMP_temperature;BMP_pressure;BME280_temperature;BME280_humidity;BME280_pressure;Samples;Min_cycle;Max_cycle;Signal;HPM_P1;HPM_P2
2023/05/13 00:00:18;;;;;;;4.27;3.87;;;11.40;99.90;;;;;;5026487;28;20492;-73
2023/05/13 00:03:04;;;;;;;6.93;3.70;;;11.40;99.90;;;;;;5034902;28;20452;-73
2023/05/13 00:05:50;;;;;;;6.80;3.50;;;11.40;99.90;;;;;;5029357;28;20914;-71
2023/05/13 00:08:35;;;;;;;6.13;3.73;;;11.40;99.90;;;;;;5025546;28;20464;-73
2023/05/13 00:11:22;;;;;;;16.33;3.63;;;11.40;99.90;;;;;;5029318;28;20558;-73
2023/05/13 00:14:09;;;;;;;4.30;3.90;;;11.30;99.90;;;;;;5032037;28;20476;-73
2023/05/13 00:16:55;;;;;;;6.27;4.07;;;11.30;99.90;;;;;;5033259;28;20425;-73
2023/05/13 00:19:40;;;;;;;10.57;3.33;;;11.20;99.90;;;;;;5030727;28;20559;-73
2023/05/13 00:22:26;;;;;;;3.97;3.37;;;11.20;99.90;;;;;;5030571;28;20445;-72
2023/05/13 00:25:11;;;;;;;4.23;3.83;;;11.20;99.90;;;;;;5021664;28;20969;-73
2023/05/13 00:27:58;;;;;;;4.37;3.97;;;11.20;99.90;;;;;;5028515;28;20450;-72
2023/05/13 00:30:44;;;;;;;4.23;3.23;;;11.20;99.90;;;;;;5023434;28;20515;-73
2023/05/13 00:33:29;;;;;;;7.60;4.87;;;11.20;99.90;;;;;;5019035;28;20437;-73
2023/05/13 00:36:15;;;;;;;7.30;4.10;;;11.20;99.90;;;;;;5030117;28;20415;-72
2023/05/13 00:39:00;;;;;;;6.23;4.70;;;11.20;99.90;;;;;;5031515;28;20545;-73
2023/05/13 00:41:46;;;;;;;6.10;4.77;;;11.20;99.90;;;;;;5024421;28;20790;-73
2023/05/13 00:44:33;;;;;;;6.70;4.43;;;11.30;99.90;;;;;;5028063;28;20557;-72
2023/05/13 00:47:19;;;;;;;4.87;4.37;;;11.30;99.90;;;;;;5035443;28;20585;-73
2023/05/13 00:50:06;;;;;;;5.87;5.07;;;11.40;99.90;;;;;;5020603;28;20798;-73
2023/05/13 00:52:51;;;;;;;6.37;5.13;;;11.40;99.90;;;;;;5034168;28;20440;-74
2023/05/13 00:55:41;;;;;;;7.20;5.20;;;11.50;99.90;;;;;;5030690;28;20811;-73
2023/05/13 00:58:27;;;;;;;5.70;4.80;;;11.60;99.90;;;;;;5036171;28;20470;-73
2023/05/13 01:01:28;;;;;;;10.10;4.80;;;11.70;99.90;;;;;;5023638;28;20419;-72
2023/05/13 01:04:23;;;;;;;8.80;5.40;;;11.80;99.90;;;;;;5032093;28;20452;-73
2023/05/13 01:07:19;;;;;;;5.70;4.43;;;11.80;99.90;;;;;;5039652;28;20442;-73
2023/05/13 01:10:10;;;;;;;9.23;4.37;;;11.70;99.90;;;;;;5024191;28;20496;-73
2023/05/13 01:13:00;;;;;;;9.17;4.77;;;11.80;99.90;;;;;;5029056;28;20426;-73
2023/05/13 01:15:49;;;;;;;6.50;4.50;;;11.60;99.90;;;;;;5031497;28;20802;-72
2023/05/13 01:18:40;;;;;;;4.80;4.33;;;11.50;99.90;;;;;;5019786;28;20436;-73
2023/05/13 01:21:27;;;;;;;6.60;4.90;;;11.50;99.90;;;;;;5029230;28;20954;-73
2023/05/13 01:24:12;;;;;;;6.70;5.50;;;11.40;99.90;;;;;;5029796;28;21026;-73
2023/05/13 01:26:58;;;;;;;5.83;4.73;;;11.30;99.90;;;;;;5033469;28;21035;-73
2023/05/13 01:29:44;;;;;;;5.40;4.20;;;11.20;99.90;;;;;;5019479;28;20417;-73
2023/05/13 01:32:30;;;;;;;5.00;3.90;;;11.30;99.90;;;;;;5032496;28;21052;-72
2023/05/13 01:35:16;;;;;;;4.77;4.23;;;11.20;99.90;;;;;;5033224;28;20576;-73
2023/05/13 01:38:05;;;;;;;4.90;4.40;;;11.20;99.90;;;;;;5026166;28;20454;-71
2023/05/13 01:40:51;;;;;;;13.63;4.10;;;11.20;99.90;;;;;;5029718;28;20452;-73
2023/05/13 01:43:36;;;;;;;6.30;4.10;;;11.10;99.90;;;;;;5023414;28;20423;-73
2023/05/13 01:46:22;;;;;;;6.87;4.40;;;11.10;99.90;;;;;;5035638;28;20464;-73
2023/05/13 01:49:09;;;;;;;4.90;4.40;;;11.00;99.90;;;;;;5023291;28;22134;-73
2023/05/13 01:51:54;;;;;;;6.63;4.30;;;11.00;99.90;;;;;;5027853;28;22289;-72
2023/05/13 01:54:41;;;;;;;7.67;3.77;;;10.90;99.90;;;;;;5038807;28;20434;-73
2023/05/13 01:57:26;;;;;;;5.70;3.93;;;10.90;99.90;;;;;;5027696;28;20469;-72
2023/05/13 02:00:13;;;;;;;5.53;4.27;;;10.80;99.90;;;;;;5025418;28;20501;-73
2023/05/13 02:02:58;;;;;;;7.03;5.00;;;10.80;99.90;;;;;;5026722;28;20526;-71
2023/05/13 02:05:43;;;;;;;5.30;3.87;;;10.70;99.90;;;;;;5032306;28;20439;-72
2023/05/13 02:08:29;;;;;;;6.00;3.93;;;10.70;99.90;;;;;;5022832;28;20600;-72
2023/05/13 02:11:16;;;;;;;5.00;4.50;;;10.80;99.90;;;;;;5025596;28;20454;-72
2023/05/13 02:14:01;;;;;;;7.93;4.80;;;10.80;99.90;;;;;;5030074;28;20788;-73
2023/05/13 02:16:47;;;;;;;6.03;4.50;;;10.70;99.90;;;;;;5021842;28;20829;-73
2023/05/13 02:19:32;;;;;;;9.00;3.87;;;10.60;99.90;;;;;;5021885;28;20458;-73
2023/05/13 02:22:18;;;;;;;6.63;4.63;;;10.50;99.90;;;;;;5032951;28;20503;-73
2023/05/13 02:25:03;;;;;;;5.20;4.50;;;10.50;99.90;;;;;;5030941;28;20458;-73
2023/05/13 02:27:50;;;;;;;5.37;4.67;;;10.60;99.90;;;;;;5018864;28;22442;-72
2023/05/13 02:30:36;;;;;;;4.63;4.13;;;10.60;99.90;;;;;;5031332;28;20490;-71
2023/05/13 02:33:21;;;;;;;5.90;4.53;;;10.60;99.90;;;;;;5032725;28;20427;-73
2023/05/13 02:36:07;;;;;;;6.90;4.53;;;10.60;99.90;;;;;;5028830;28;20443;-73
2023/05/13 02:38:52;;;;;;;7.30;4.00;;;10.70;99.90;;;;;;5021565;28;20522;-72
2023/05/13 02:41:38;;;;;;;5.63;4.50;;;10.70;99.90;;;;;;5028380;28;20447;-72
2023/05/13 02:44:25;;;;;;;6.70;5.37;;;10.70;99.90;;;;;;5027870;28;21993;-73
2023/05/13 02:47:10;;;;;;;6.20;5.13;;;10.70;99.90;;;;;;5026282;28;20468;-72
2023/05/13 02:49:56;;;;;;;6.80;4.90;;;10.60;99.90;;;;;;5035199;28;20515;-72
2023/05/13 02:52:42;;;;;;;6.10;3.90;;;10.60;99.90;;;;;;5035496;28;21013;-71
2023/05/13 02:55:27;;;;;;;8.43;4.33;;;10.70;99.90;;;;;;5035567;28;20867;-73
2023/05/13 02:58:13;;;;;;;7.33;4.60;;;10.70;99.90;;;;;;5032745;28;21020;-72
2023/05/13 03:01:00;;;;;;;11.97;4.70;;;10.70;99.90;;;;;;5026466;28;20440;-72
2023/05/13 03:03:45;;;;;;;4.80;4.30;;;10.70;99.90;;;;;;5041035;28;20443;-72
2023/05/13 03:06:31;;;;;;;5.87;4.10;;;10.70;99.90;;;;;;5028754;28;20441;-73
2023/05/13 03:09:16;;;;;;;6.00;4.33;;;10.70;99.90;;;;;;5027021;28;20558;-72
2023/05/13 03:12:02;;;;;;;5.23;4.37;;;10.70;99.90;;;;;;5024126;28;20425;-72
2023/05/13 03:14:47;;;;;;;6.93;4.60;;;10.70;99.90;;;;;;5029481;28;20459;-72
2023/05/13 03:17:34;;;;;;;8.63;4.10;;;10.80;99.90;;;;;;5022961;28;20469;-73
2023/05/13 03:20:20;;;;;;;11.43;4.67;;;10.80;99.90;;;;;;5030642;28;20454;-72
2023/05/13 03:23:05;;;;;;;4.63;4.23;;;10.90;99.90;;;;;;5034144;28;20432;-72
2023/05/13 03:25:51;;;;;;;6.53;4.60;;;10.80;99.90;;;;;;5032631;28;20558;-72
2023/05/13 03:28:36;;;;;;;6.60;4.30;;;10.80;99.90;;;;;;5034493;28;20519;-72
2023/05/13 03:31:22;;;;;;;6.53;4.70;;;10.80;99.90;;;;;;5057609;23;20482;-76
2023/05/13 03:34:09;;;;;;;5.33;4.80;;;10.80;99.90;;;;;;5090452;28;20473;-72
2023/05/13 03:36:54;;;;;;;5.30;4.60;;;10.80;99.90;;;;;;5090265;28;20420;-75
2023/05/13 03:39:40;;;;;;;5.03;4.33;;;10.80;99.90;;;;;;5097080;28;20476;-76
2023/05/13 03:42:26;;;;;;;8.30;5.23;;;10.80;99.90;;;;;;5096703;28;20502;-73
2023/05/13 03:45:11;;;;;;;6.47;4.80;;;10.80;99.90;;;;;;5095862;28;20517;-76
2023/05/13 03:47:57;;;;;;;7.03;4.53;;;10.90;99.90;;;;;;5088102;28;20811;-75
2023/05/13 03:50:44;;;;;;;5.87;5.03;;;11.00;99.90;;;;;;5094901;28;20478;-76
2023/05/13 03:53:29;;;;;;;4.47;4.07;;;11.00;99.90;;;;;;5092385;28;20445;-76
2023/05/13 03:56:15;;;;;;;4.73;3.80;;;11.00;99.90;;;;;;5093582;28;20585;-76
2023/05/13 03:59:00;;;;;;;8.20;4.40;;;11.10;99.90;;;;;;5086738;28;20477;-75
2023/05/13 04:01:46;;;;;;;5.53;4.00;;;11.20;99.90;;;;;;5079890;28;20485;-76
2023/05/13 04:04:31;;;;;;;8.63;4.97;;;11.20;99.90;;;;;;5099032;28;20409;-76
2023/05/13 04:07:19;;;;;;;5.37;4.30;;;11.20;99.90;;;;;;5086413;28;20480;-76
2023/05/13 04:10:05;;;;;;;6.17;4.03;;;11.20;99.90;;;;;;5099370;28;20882;-76
2023/05/13 04:12:51;;;;;;;5.63;4.80;;;11.30;99.90;;;;;;5097396;28;20451;-76
2023/05/13 04:15:36;;;;;;;13.63;4.53;;;11.40;99.90;;;;;;5096012;28;20895;-76
2023/05/13 04:18:22;;;;;;;5.97;4.40;;;11.50;99.90;;;;;;5083184;28;20439;-76
2023/05/13 04:21:08;;;;;;;5.17;4.43;;;11.60;99.90;;;;;;5087117;28;20982;-75
2023/05/13 04:23:55;;;;;;;4.83;4.10;;;11.60;99.90;;;;;;5093010;28;20491;-76
2023/05/13 04:26:40;;;;;;;5.63;4.30;;;11.70;99.90;;;;;;5087398;28;20454;-75
2023/05/13 04:29:25;;;;;;;3.73;3.30;;;11.70;99.90;;;;;;5092834;28;20442;-76
2023/05/13 04:32:14;;;;;;;5.07;3.80;;;11.80;99.90;;;;;;5095515;28;20578;-76
2023/05/13 04:34:59;;;;;;;8.77;5.07;;;11.90;99.90;;;;;;5092600;28;20443;-76
2023/05/13 04:37:45;;;;;;;4.70;4.30;;;12.00;99.90;;;;;;5089284;28;21076;-76
2023/05/13 04:40:32;;;;;;;7.20;4.83;;;12.10;99.90;;;;;;5089426;28;20802;-76
2023/05/13 04:43:17;;;;;;;8.77;4.17;;;12.20;99.90;;;;;;5095758;28;20447;-76
2023/05/13 04:46:03;;;;;;;10.33;3.67;;;12.20;99.90;;;;;;5095490;28;20471;-76
2023/05/13 04:48:48;;;;;;;4.80;3.83;;;12.30;99.90;;;;;;5092618;28;20417;-74
2023/05/13 04:51:34;;;;;;;6.90;4.63;;;12.40;99.90;;;;;;5090343;28;20444;-76
2023/05/13 04:54:19;;;;;;;5.73;3.97;;;12.50;99.90;;;;;;5094557;28;20442;-76
2023/05/13 04:57:07;;;;;;;6.23;4.30;;;12.60;99.90;;;;;;5086433;28;20449;-75
2023/05/13 04:59:52;;;;;;;4.10;3.67;;;12.60;99.90;;;;;;5098782;28;20905;-76
2023/05/13 05:02:37;;;;;;;5.50;3.70;;;12.60;99.90;;;;;;5099485;28;21022;-76
2023/05/13 05:05:23;;;;;;;6.00;3.83;;;12.70;99.90;;;;;;5091244;28;20851;-75
2023/05/13 05:08:08;;;;;;;4.10;3.60;;;12.70;99.90;;;;;;5088173;28;20439;-76
2023/05/13 05:10:54;;;;;;;4.20;3.23;;;12.80;99.90;;;;;;5084575;28;20942;-76
2023/05/13 05:13:41;;;;;;;4.63;3.63;;;12.90;99.90;;;;;;5098439;28;21162;-76
2023/05/13 05:16:26;;;;;;;3.83;3.43;;;13.00;99.90;;;;;;5086089;28;20475;-76
2023/05/13 05:19:12;;;;;;;4.67;3.17;;;13.00;99.90;;;;;;5101579;28;20801;-76
2023/05/13 05:21:57;;;;;;;5.73;3.93;;;13.10;99.90;;;;;;5088893;28;20546;-76
2023/05/13 05:24:43;;;;;;;5.90;3.67;;;13.10;99.90;;;;;;5085129;28;20540;-76
2023/05/13 05:27:28;;;;;;;7.20;3.50;;;13.20;99.90;;;;;;5088224;28;20601;-76
2023/05/13 05:30:15;;;;;;;5.67;4.30;;;13.30;99.90;;;;;;5085842;28;20774;-76
2023/05/13 05:33:00;;;;;;;3.73;3.10;;;13.30;99.90;;;;;;5089770;28;20445;-76
2023/05/13 05:35:46;;;;;;;10.50;3.57;;;13.40;99.90;;;;;;5081166;28;20453;-74
2023/05/13 05:38:31;;;;;;;4.83;3.50;;;13.40;99.90;;;;;;5093387;28;20431;-75
2023/05/13 05:41:16;;;;;;;5.10;3.10;;;13.50;99.90;;;;;;5089704;28;20601;-76
2023/05/13 05:44:02;;;;;;;3.80;3.40;;;13.50;99.90;;;;;;5080205;28;20423;-76
2023/05/13 05:46:51;;;;;;;5.33;4.20;;;13.60;99.90;;;;;;5086969;28;20442;-76
2023/05/13 05:49:37;;;;;;;3.43;2.70;;;13.70;99.90;;;;;;5087486;28;20442;-75
2023/05/13 05:52:22;;;;;;;2.93;2.63;;;13.80;99.90;;;;;;5088581;28;20466;-76
2023/05/13 05:55:09;;;;;;;7.13;3.43;;;14.00;99.90;;;;;;5092418;28;20917;-72
2023/05/13 05:57:54;;;;;;;4.07;3.20;;;14.00;99.90;;;;;;5077636;28;20425;-76
2023/05/13 06:00:39;;;;;;;4.70;2.97;;;14.10;99.90;;;;;;5081500;28;20446;-76
2023/05/13 06:03:27;;;;;;;4.00;3.10;;;14.20;99.90;;;;;;5089952;28;20406;-75
2023/05/13 06:06:12;;;;;;;4.47;4.07;;;14.30;99.90;;;;;;5086755;28;20805;-75
2023/05/13 06:08:58;;;;;;;4.27;3.10;;;14.40;99.90;;;;;;5079685;28;20411;-75
2023/05/13 06:11:43;;;;;;;3.63;2.90;;;14.40;99.90;;;;;;5087741;28;20454;-75
2023/05/13 06:14:29;;;;;;;5.80;3.40;;;14.40;99.90;;;;;;5094571;28;20478;-75
2023/05/13 06:17:15;;;;;;;4.30;2.67;;;14.40;99.90;;;;;;5093774;28;20455;-75
2023/05/13 06:20:02;;;;;;;5.50;4.67;;;14.30;99.90;;;;;;5092019;28;20431;-76
2023/05/13 06:22:47;;;;;;;4.07;3.60;;;14.30;99.90;;;;;;5088448;28;20413;-77
2023/05/13 06:25:33;;;;;;;3.83;3.20;;;14.30;99.90;;;;;;5076692;28;20791;-76
2023/05/13 06:28:18;;;;;;;3.53;2.70;;;14.30;99.90;;;;;;5081428;28;20425;-74
2023/05/13 06:31:04;;;;;;;6.20;3.47;;;14.40;99.90;;;;;;5090358;28;20487;-71
2023/05/13 06:33:49;;;;;;;4.73;3.20;;;14.40;99.90;;;;;;5084066;28;20442;-74
2023/05/13 06:36:36;;;;;;;4.43;3.23;;;14.60;99.90;;;;;;5082429;28;20468;-74
2023/05/13 06:39:22;;;;;;;4.23;3.07;;;14.70;99.90;;;;;;5085012;28;20554;-74
2023/05/13 06:42:07;;;;;;;6.00;3.30;;;14.90;99.90;;;;;;5084658;28;20544;-73
2023/05/13 06:44:53;;;;;;;3.10;2.37;;;15.00;99.90;;;;;;5085430;28;20521;-74
2023/05/13 06:47:38;;;;;;;3.97;2.93;;;15.20;99.90;;;;;;5087879;28;20450;-73
2023/05/13 06:50:24;;;;;;;5.70;2.73;;;15.30;99.90;;;;;;5082606;28;20563;-70
2023/05/13 06:53:11;;;;;;;3.40;2.90;;;15.40;99.90;;;;;;5081215;28;20494;-75
2023/05/13 06:55:56;;;;;;;7.00;3.83;;;15.50;99.90;;;;;;5082500;28;20448;-75
2023/05/13 06:58:42;;;;;;;5.00;3.50;;;15.60;99.90;;;;;;5082561;28;20442;-74
2023/05/13 07:01:27;;;;;;;6.00;3.50;;;15.70;99.90;;;;;;5089212;28;20597;-75
2023/05/13 07:04:13;;;;;;;6.03;2.47;;;15.70;99.90;;;;;;5089967;28;21067;-75
2023/05/13 07:06:58;;;;;;;3.33;2.50;;;15.80;99.90;;;;;;5084502;28;20498;-75
2023/05/13 07:09:45;;;;;;;3.10;2.47;;;15.80;99.90;;;;;;5080213;28;20495;-75
2023/05/13 07:12:31;;;;;;;3.43;2.80;;;15.90;99.90;;;;;;5085334;28;20462;-74
2023/05/13 07:15:16;;;;;;;4.00;2.53;;;16.00;99.90;;;;;;5079281;28;20448;-74
2023/05/13 07:18:02;;;;;;;3.77;2.30;;;16.10;99.90;;;;;;5082455;28;20415;-74
2023/05/13 07:20:47;;;;;;;3.80;2.97;;;16.20;99.90;;;;;;5078185;28;20494;-74
2023/05/13 07:23:34;;;;;;;3.33;2.83;;;16.20;99.90;;;;;;5079221;28;20533;-74
2023/05/13 07:26:21;;;;;;;4.83;2.70;;;16.30;99.90;;;;;;5078183;28;20415;-74
2023/05/13 07:29:06;;;;;;;4.10;2.40;;;16.30;99.90;;;;;;5073991;28;21031;-73
2023/05/13 07:31:51;;;;;;;3.27;2.00;;;16.20;99.90;;;;;;5073512;28;20489;-74
2023/05/13 07:34:37;;;;;;;3.20;2.40;;;16.00;99.90;;;;;;5076879;28;20785;-74
2023/05/13 07:37:23;;;;;;;4.67;3.00;;;15.80;99.90;;;;;;5088602;28;20529;-74
2023/05/13 07:40:09;;;;;;;4.07;2.03;;;15.70;99.90;;;;;;5085840;28;20543;-72
2023/05/13 07:42:56;;;;;;;4.33;2.03;;;15.60;99.90;;;;;;5081999;28;20466;-73
2023/05/13 07:45:41;;;;;;;4.37;2.70;;;15.50;99.90;;;;;;5088476;28;20452;-73
2023/05/13 07:48:27;;;;;;;14.40;3.00;;;15.50;99.90;;;;;;5091673;28;20451;-73
2023/05/13 07:51:12;;;;;;;4.03;2.73;;;15.50;99.90;;;;;;5103497;28;20455;-74
2023/05/13 07:53:57;;;;;;;3.77;2.80;;;15.50;99.90;;;;;;5092142;28;20480;-74
2023/05/13 07:56:45;;;;;;;3.50;2.47;;;15.60;99.90;;;;;;5097186;28;20834;-74
2023/05/13 07:59:32;;;;;;;3.70;2.60;;;15.60;99.90;;;;;;5095497;28;20951;-74
2023/05/13 08:02:17;;;;;;;5.47;2.53;;;15.70;99.90;;;;;;5101846;28;20462;-74
2023/05/13 08:05:02;;;;;;;3.87;3.03;;;15.80;99.90;;;;;;5087701;28;20451;-74
2023/05/13 08:07:48;;;;;;;4.20;2.57;;;15.90;99.90;;;;;;5089404;28;20510;-73
2023/05/13 08:10:34;;;;;;;2.90;2.50;;;16.00;99.90;;;;;;5099741;28;20414;-73
2023/05/13 08:13:20;;;;;;;6.87;2.17;;;16.10;99.90;;;;;;5092198;28;20434;-74
2023/05/13 08:16:07;;;;;;;5.50;2.67;;;16.20;99.90;;;;;;5091311;28;20425;-74
2023/05/13 08:18:53;;;;;;;4.73;2.20;;;16.40;99.90;;;;;;5095200;28;20969;-74
2023/05/13 08:21:38;;;;;;;4.20;2.40;;;16.60;99.90;;;;;;5090463;28;20459;-74
2023/05/13 08:24:24;;;;;;;4.10;2.20;;;16.80;99.90;;;;;;5089258;28;21024;-74
2023/05/13 08:27:09;;;;;;;5.63;2.03;;;16.90;99.90;;;;;;5091983;28;20440;-74
2023/05/13 08:29:55;;;;;;;2.93;2.33;;;17.10;99.90;;;;;;5101323;28;20515;-73
2023/05/13 08:32:42;;;;;;;3.10;2.40;;;17.20;99.90;;;;;;5089746;28;20837;-74
2023/05/13 08:35:27;;;;;;;3.40;2.53;;;17.20;99.90;;;;;;5085941;28;20397;-73
2023/05/13 08:38:13;;;;;;;3.10;2.33;;;17.30;99.90;;;;;;5092719;28;20472;-74
2023/05/13 08:40:58;;;;;;;3.03;2.30;;;17.40;99.90;;;;;;5094145;28;20456;-73
2023/05/13 08:43:46;;;;;;;3.00;2.53;;;17.50;99.90;;;;;;5088391;28;20981;-74
2023/05/13 08:46:33;;;;;;;3.03;2.53;;;17.50;99.90;;;;;;5095640;28;21113;-74
2023/05/13 08:49:20;;;;;;;3.07;2.40;;;17.50;99.90;;;;;;5091831;28;20553;-74
2023/05/13 08:52:06;;;;;;;3.33;2.10;;;17.60;99.90;;;;;;5095106;28;20540;-73
2023/05/13 08:54:52;;;;;;;3.83;2.60;;;17.80;99.90;;;;;;5090486;28;20441;-74
2023/05/13 08:57:38;;;;;;;6.27;2.43;;;17.80;97.00;;;;;;5084973;28;21106;-73
2023/05/13 09:00:23;;;;;;;3.37;2.23;;;17.90;94.80;;;;;;5097355;28;20608;-72
2023/05/13 09:03:09;;;;;;;4.07;2.60;;;17.90;98.00;;;;;;5078463;28;20557;-73
2023/05/13 09:05:55;;;;;;;3.70;2.50;;;17.90;96.70;;;;;;5090972;28;20427;-74
2023/05/13 09:08:41;;;;;;;4.03;2.50;;;17.90;96.70;;;;;;5089175;28;21024;-74
2023/05/13 09:11:28;;;;;;;3.53;2.40;;;17.90;98.20;;;;;;5093888;28;20442;-74
2023/05/13 09:14:13;;;;;;;4.37;2.80;;;18.00;95.80;;;;;;5089148;28;20431;-74
2023/05/13 09:16:59;;;;;;;10.33;2.57;;;18.10;94.80;;;;;;5087640;28;20446;-74
2023/05/13 09:19:44;;;;;;;4.50;2.30;;;18.20;91.60;;;;;;5097474;28;20480;-74
2023/05/13 09:22:31;;;;;;;5.00;2.60;;;18.40;91.30;;;;;;5088660;28;20449;-74
2023/05/13 09:25:18;;;;;;;3.17;2.70;;;18.50;96.00;;;;;;5087280;28;20444;-74
2023/05/13 09:28:05;;;;;;;8.87;2.87;;;18.60;87.20;;;;;;5088592;28;20935;-74
2023/05/13 09:30:55;;;;;;;5.90;2.87;;;18.60;89.50;;;;;;5099525;28;20567;-73
2023/05/13 09:33:52;;;;;;;2.80;2.47;;;18.60;85.10;;;;;;5067680;22;20465;-72
2023/05/13 09:36:38;;;;;;;5.40;2.53;;;18.60;85.60;;;;;;5045974;28;20559;-72
2023/05/13 09:39:24;;;;;;;6.03;2.20;;;18.60;82.30;;;;;;5053042;28;20425;-72
2023/05/13 09:42:15;;;;;;;3.10;2.40;;;18.70;79.70;;;;;;5051369;28;20534;-72
2023/05/13 09:45:06;;;;;;;7.93;2.80;;;18.60;80.10;;;;;;5045368;28;20438;-72
2023/05/13 09:47:52;;;;;;;3.13;2.60;;;18.60;78.60;;;;;;5049746;28;20430;-73
2023/05/13 09:50:47;;;;;;;3.50;2.57;;;18.60;84.50;;;;;;5053983;28;20426;-72
2023/05/13 09:53:32;;;;;;;6.37;3.33;;;18.60;76.00;;;;;;5050910;28;20575;-73
2023/05/13 09:56:22;;;;;;;3.60;2.30;;;18.60;75.90;;;;;;5059603;28;20435;-73
2023/05/13 09:59:08;;;;;;;3.00;2.37;;;18.60;76.90;;;;;;5057577;28;20434;-72
2023/05/13 10:01:58;;;;;;;4.33;2.53;;;18.70;79.70;;;;;;5053215;28;20456;-72
2023/05/13 10:04:44;;;;;;;7.00;2.43;;;18.80;73.60;;;;;;5047921;28;20975;-72
2023/05/13 10:07:33;;;;;;;14.20;3.33;;;18.80;78.90;;;;;;5054514;28;20418;-72
2023/05/13 10:10:18;;;;;;;10.43;2.80;;;18.90;76.70;;;;;;5060755;28;20425;-72
2023/05/13 10:13:09;;;;;;;5.33;2.63;;;19.00;76.00;;;;;;5049927;28;20999;-72
2023/05/13 10:15:55;;;;;;;3.70;2.73;;;19.10;77.90;;;;;;5057846;28;20406;-72
2023/05/13 10:18:41;;;;;;;6.73;2.70;;;19.10;74.60;;;;;;5051979;28;21099;-72
2023/05/13 10:21:27;;;;;;;6.40;2.80;;;19.10;73.20;;;;;;5058534;28;20439;-73
2023/05/13 10:24:13;;;;;;;4.60;2.60;;;19.00;71.30;;;;;;5048338;28;20444;-72
2023/05/13 10:27:00;;;;;;;6.93;2.47;;;19.10;75.20;;;;;;5057446;28;20430;-72
2023/05/13 10:29:49;;;;;;;4.50;2.87;;;19.30;76.50;;;;;;5041414;28;20577;-72
2023/05/13 10:32:36;;;;;;;6.07;2.43;;;19.50;79.20;;;;;;5040315;28;20446;-72
2023/05/13 10:35:26;;;;;;;8.70;3.30;;;19.70;75.90;;;;;;5054760;28;20446;-72
2023/05/13 10:38:17;;;;;;;3.60;2.93;;;19.80;71.80;;;;;;5053840;28;20479;-72
2023/05/13 10:41:10;;;;;;;3.70;2.40;;;19.80;65.10;;;;;;5050108;28;20502;-72
2023/05/13 10:43:57;;;;;;;3.33;2.40;;;19.90;68.70;;;;;;5051148;28;20475;-72
2023/05/13 10:46:47;;;;;;;8.90;2.83;;;20.00;68.20;;;;;;5051901;28;20450;-73
2023/05/13 10:49:35;;;;;;;4.83;2.90;;;20.00;65.00;;;;;;5057010;28;20441;-72
2023/05/13 10:52:21;;;;;;;5.40;2.83;;;19.90;71.70;;;;;;5048203;28;20506;-72
2023/05/13 10:55:15;;;;;;;3.30;2.60;;;19.80;64.80;;;;;;5049252;28;20462;-72
2023/05/13 10:58:08;;;;;;;5.07;3.03;;;19.60;64.90;;;;;;5053266;28;20557;-72
2023/05/13 11:00:53;;;;;;;4.30;3.17;;;19.70;70.60;;;;;;5054445;28;20434;-72
2023/05/13 11:03:41;;;;;;;4.33;3.27;;;19.80;67.80;;;;;;5047651;28;20470;-72
2023/05/13 11:06:33;;;;;;;4.93;2.90;;;19.80;67.70;;;;;;5059245;28;20486;-72
2023/05/13 11:09:30;;;;;;;6.17;2.70;;;19.90;72.00;;;;;;5048850;28;20506;-72
2023/05/13 11:12:15;;;;;;;3.90;2.60;;;20.10;68.50;;;;;;5048185;28;20995;-72
2023/05/13 11:15:01;;;;;;;5.13;3.27;;;20.20;65.70;;;;;;5051020;28;20393;-72
2023/05/13 11:17:46;;;;;;;5.83;3.40;;;20.30;67.50;;;;;;5057648;28;20466;-72
2023/05/13 11:20:33;;;;;;;3.27;2.63;;;20.20;63.90;;;;;;5055350;28;20901;-72
2023/05/13 11:23:19;;;;;;;4.90;2.90;;;20.10;58.50;;;;;;5055486;28;20445;-73
2023/05/13 11:26:15;;;;;;;5.70;2.93;;;20.20;64.20;;;;;;5058511;28;20398;-73
2023/05/13 11:29:04;;;;;;;3.60;2.67;;;20.40;63.10;;;;;;5043467;28;20423;-72
2023/05/13 11:31:51;;;;;;;6.00;3.57;;;20.40;54.70;;;;;;5046409;28;20432;-72
2023/05/13 11:34:38;;;;;;;10.00;3.20;;;20.40;53.70;;;;;;5048993;28;20406;-72
2023/05/13 11:37:25;;;;;;;5.60;2.90;;;20.30;56.00;;;;;;5052443;28;20585;-72
2023/05/13 11:40:11;;;;;;;4.33;2.50;;;20.10;49.70;;;;;;5063740;28;20480;-72
2023/05/13 11:42:58;;;;;;;8.60;3.07;;;19.80;50.20;;;;;;5050679;28;20457;-73
2023/05/13 11:45:45;;;;;;;4.40;2.67;;;19.70;56.60;;;;;;5053042;28;20429;-72
2023/05/13 11:48:32;;;;;;;5.60;3.10;;;19.70;65.40;;;;;;5058814;28;20809;-72
2023/05/13 11:51:18;;;;;;;6.77;3.50;;;19.90;56.90;;;;;;5052885;28;20427;-72
2023/05/13 11:54:05;;;;;;;4.73;3.10;;;19.90;51.50;;;;;;5054572;28;21027;-72
2023/05/13 11:56:50;;;;;;;4.50;3.47;;;20.10;53.50;;;;;;5061337;28;20955;-72
2023/05/13 11:59:36;;;;;;;6.93;3.10;;;20.30;52.20;;;;;;5054542;28;20963;-72
2023/05/13 12:02:23;;;;;;;4.00;3.40;;;20.50;55.30;;;;;;5049422;28;20488;-72
2023/05/13 12:05:10;;;;;;;5.93;4.10;;;20.60;44.00;;;;;;5063635;28;20427;-72
2023/05/13 12:07:57;;;;;;;6.10;3.13;;;20.70;44.30;;;;;;5055663;28;20466;-72
2023/05/13 12:10:44;;;;;;;4.23;3.07;;;20.70;43.20;;;;;;5047983;28;20603;-72
2023/05/13 12:13:30;;;;;;;4.13;3.00;;;20.40;46.50;;;;;;5056032;28;20432;-72
2023/05/13 12:16:15;;;;;;;6.30;3.27;;;20.30;47.60;;;;;;5059456;28;20910;-72
2023/05/13 12:19:04;;;;;;;10.43;3.87;;;20.20;51.70;;;;;;5062250;28;20555;-73
2023/05/13 12:21:50;;;;;;;3.83;2.70;;;20.30;55.40;;;;;;5043799;28;20455;-72
2023/05/13 12:24:35;;;;;;;3.67;3.20;;;20.40;46.90;;;;;;5047199;28;20514;-72
2023/05/13 12:27:22;;;;;;;6.33;3.90;;;20.70;46.60;;;;;;5046962;28;20542;-73
2023/05/13 12:30:14;;;;;;;4.07;3.20;;;20.90;47.00;;;;;;5053520;28;20464;-72
2023/05/13 12:33:00;;;;;;;8.13;4.43;;;21.10;38.60;;;;;;5049581;28;20447;-72
2023/05/13 12:35:48;;;;;;;4.63;3.40;;;21.10;38.40;;;;;;5047649;28;20489;-72
2023/05/13 12:38:33;;;;;;;13.37;3.40;;;21.00;36.30;;;;;;5051674;28;20459;-73
2023/05/13 12:41:19;;;;;;;5.80;3.60;;;21.00;45.40;;;;;;5047843;28;20907;-72
2023/05/13 12:44:09;;;;;;;5.33;3.23;;;21.10;40.80;;;;;;5056338;28;20471;-73
2023/05/13 12:46:55;;;;;;;4.30;2.73;;;21.30;44.10;;;;;;5054387;28;20506;-72
2023/05/13 12:49:59;;;;;;;4.10;3.20;;;21.50;46.20;;;;;;5053498;28;20468;-72
2023/05/13 12:52:44;;;;;;;6.90;3.33;;;21.70;41.40;;;;;;5048879;28;20451;-73
2023/05/13 12:55:30;;;;;;;4.60;3.70;;;21.90;39.70;;;;;;5051543;28;20435;-72
2023/05/13 12:58:15;;;;;;;3.57;2.87;;;22.10;40.10;;;;;;5054543;28;20473;-72
2023/05/13 13:01:02;;;;;;;7.03;3.23;;;22.20;34.20;;;;;;5045503;28;20512;-72
2023/05/13 13:03:48;;;;;;;4.20;3.13;;;22.40;38.30;;;;;;5048686;28;21030;-73
2023/05/13 13:06:33;;;;;;;5.00;2.93;;;22.20;33.60;;;;;;5043080;28;20547;-71
2023/05/13 13:09:19;;;;;;;3.67;3.30;;;22.10;41.10;;;;;;5052808;28;20474;-71
2023/05/13 13:12:04;;;;;;;6.57;3.50;;;22.10;36.00;;;;;;5045068;28;20449;-71
2023/05/13 13:14:50;;;;;;;6.37;3.37;;;22.10;35.10;;;;;;5050218;28;20537;-71
2023/05/13 13:17:37;;;;;;;4.43;3.47;;;21.90;33.30;;;;;;5037943;28;20555;-71
2023/05/13 13:20:23;;;;;;;4.17;3.17;;;22.00;39.60;;;;;;5045397;28;21039;-71
2023/05/13 13:23:09;;;;;;;6.03;3.10;;;22.20;36.60;;;;;;5044255;28;20536;-71
2023/05/13 13:25:54;;;;;;;6.10;3.03;;;22.60;35.30;;;;;;5062722;28;20447;-71
2023/05/13 13:28:39;;;;;;;5.17;2.97;;;22.70;33.30;;;;;;5050065;28;20394;-71
2023/05/13 13:31:25;;;;;;;4.33;3.43;;;22.70;32.80;;;;;;5047508;28;20510;-71
2023/05/13 13:34:12;;;;;;;5.50;3.87;;;22.60;31.70;;;;;;5052103;28;21028;-71
2023/05/13 13:36:58;;;;;;;7.77;3.20;;;22.40;28.40;;;;;;5048496;28;20468;-71
2023/05/13 13:39:43;;;;;;;6.80;3.70;;;22.30;31.00;;;;;;5048269;28;20503;-71
2023/05/13 13:42:29;;;;;;;4.90;3.23;;;22.20;29.20;;;;;;5039599;28;20496;-71
2023/05/13 13:45:14;;;;;;;3.90;3.20;;;22.40;34.70;;;;;;5051642;28;20452;-71
2023/05/13 13:48:00;;;;;;;7.93;3.40;;;22.60;31.20;;;;;;5039937;28;20472;-71
2023/05/13 13:50:47;;;;;;;5.43;3.20;;;22.50;28.50;;;;;;5046030;28;20521;-71
2023/05/13 13:53:32;;;;;;;5.20;2.90;;;22.30;30.40;;;;;;5043673;28;20463;-71
2023/05/13 13:56:18;;;;;;;4.30;3.40;;;22.20;33.30;;;;;;5057501;28;20410;-71
2023/05/13 13:59:04;;;;;;;3.33;3.03;;;22.40;28.40;;;;;;5049410;28;20470;-71
2023/05/13 14:01:49;;;;;;;6.90;3.70;;;22.80;33.60;;;;;;5054020;28;20568;-71
2023/05/13 14:04:35;;;;;;;4.20;3.07;;;23.30;30.60;;;;;;5050454;28;20424;-71
2023/05/13 14:07:22;;;;;;;3.90;2.73;;;23.40;25.60;;;;;;5053897;28;20417;-71
2023/05/13 14:10:08;;;;;;;5.10;3.17;;;23.40;23.70;;;;;;5046358;28;20456;-71
2023/05/13 14:12:54;;;;;;;3.87;2.70;;;23.30;26.10;;;;;;5053736;28;20853;-71
2023/05/13 14:15:39;;;;;;;4.53;2.43;;;23.50;26.50;;;;;;5059957;28;20443;-71
2023/05/13 14:18:25;;;;;;;5.33;2.90;;;23.70;25.40;;;;;;5050047;28;20470;-71
2023/05/13 14:21:10;;;;;;;5.63;3.50;;;23.80;24.50;;;;;;5050097;28;20440;-71
2023/05/13 14:23:57;;;;;;;4.77;3.10;;;23.70;25.90;;;;;;5057869;28;21391;-71